createdAt,value
2019-03-01T00:02:13.075Z,76.69
2019-03-01T00:05:36.269Z,76.82
2019-03-01T00:08:15.789Z,76.82
2019-03-01T00:11:04.466Z,76.50
2019-03-01T00:14:06.123Z,76.36
2019-03-01T00:16:49.262Z,76.27
2019-03-01T00:19:44.255Z,76.18
2019-03-01T00:22:30.190Z,76.07
2019-03-01T00:25:22.028Z,75.79
2019-03-01T00:28:02.072Z,75.59
2019-03-01T00:30:45.160Z,75.26
2019-03-01T00:33:28.409Z,75.04
2019-03-01T00:36:25.948Z,74.89
2019-03-01T00:39:12.210Z,74.73
2019-03-01T00:41:52.536Z,74.57
2019-03-01T00:44:41.488Z,74.46
2019-03-01T00:47:11.206Z,74.33
2019-03-01T00:49:40.897Z,74.17
2019-03-01T00:52:11.244Z,74.19
2019-03-01T00:54:40.791Z,74.30
2019-03-01T00:57:10.501Z,74.36
2019-03-01T00:59:40.134Z,74.33
2019-03-01T01:02:09.794Z,74.37
2019-03-01T01:04:39.347Z,74.35
2019-03-01T01:07:08.886Z,74.29
2019-03-01T01:09:38.619Z,74.14
2019-03-01T01:12:08.328Z,74.06
2019-03-01T01:14:38.071Z,73.97
2019-03-01T01:17:07.618Z,73.73
2019-03-01T01:19:37.167Z,73.55
2019-03-01T01:22:06.731Z,73.46
2019-03-01T01:24:36.280Z,73.49
2019-03-01T01:27:05.925Z,73.53
2019-03-01T01:29:35.478Z,73.52
2019-03-01T01:32:05.051Z,73.57
2019-03-01T01:34:34.619Z,73.57
2019-03-01T01:37:04.194Z,73.60
2019-03-01T01:39:34.239Z,73.61
2019-03-01T01:42:03.853Z,73.64
2019-03-01T01:44:33.404Z,73.73
2019-03-01T01:47:02.981Z,73.81
2019-03-01T01:49:32.518Z,73.90
2019-03-01T01:52:02.096Z,74.10
2019-03-01T01:54:31.630Z,74.21
2019-03-01T01:57:01.542Z,74.40
2019-03-01T01:59:31.074Z,74.65
2019-03-01T02:02:00.624Z,74.89
2019-03-01T02:04:30.194Z,75.08
2019-03-01T02:06:59.816Z,75.16
2019-03-01T02:09:29.475Z,75.25
2019-03-01T02:11:59.032Z,75.38
2019-03-01T02:14:28.844Z,75.60
2019-03-01T02:16:58.392Z,75.84
2019-03-01T02:19:27.940Z,76.04
2019-03-01T02:21:57.505Z,76.11
2019-03-01T02:24:27.043Z,76.10
2019-03-01T02:27:27.051Z,76.03
2019-03-01T02:29:56.705Z,75.93
2019-03-01T02:32:33.811Z,75.83
2019-03-01T02:35:03.360Z,76.05
2019-03-01T02:37:32.933Z,76.21
2019-03-01T02:40:02.506Z,76.33
2019-03-01T02:42:32.047Z,76.35
2019-03-01T02:45:01.617Z,76.26
2019-03-01T02:47:31.178Z,76.11
2019-03-01T02:50:00.722Z,75.93
2019-03-01T02:52:30.300Z,75.76
2019-03-01T02:54:59.845Z,75.61
2019-03-01T02:57:29.493Z,75.40
2019-03-01T02:59:59.046Z,75.14
2019-03-01T03:02:28.661Z,74.92
2019-03-01T03:04:58.237Z,74.77
2019-03-01T03:07:29.425Z,74.62
2019-03-01T03:09:59.009Z,74.50
2019-03-01T03:12:28.560Z,74.38
2019-03-01T03:14:58.101Z,74.32
2019-03-01T03:17:28.000Z,74.26
2019-03-01T03:19:57.549Z,74.24
2019-03-01T03:22:27.204Z,74.23
2019-03-01T03:24:56.752Z,74.22
2019-03-01T03:27:26.301Z,74.20
2019-03-01T03:29:55.901Z,74.19
2019-03-01T03:32:25.981Z,74.18
2019-03-01T03:34:55.717Z,74.12
2019-03-01T03:37:25.260Z,74.01
2019-03-01T03:39:54.810Z,73.98
2019-03-01T03:42:24.397Z,73.99
2019-03-01T03:44:54.086Z,74.06
2019-03-01T03:47:24.104Z,74.15
2019-03-01T03:49:53.664Z,74.17
2019-03-01T03:52:23.216Z,74.27
2019-03-01T03:54:52.793Z,74.34
2019-03-01T03:57:22.525Z,74.33
2019-03-01T03:59:52.185Z,74.32
2019-03-01T04:02:21.760Z,74.27
2019-03-01T04:04:51.556Z,74.29
2019-03-01T04:07:21.181Z,74.42
2019-03-01T04:09:50.719Z,74.48
2019-03-01T04:12:20.300Z,74.54
2019-03-01T04:14:49.841Z,74.61
2019-03-01T04:17:19.428Z,74.59
2019-03-01T04:19:49.050Z,74.66
2019-03-01T04:22:18.772Z,74.73
2019-03-01T04:24:48.320Z,74.78
2019-03-01T04:27:17.871Z,74.85
2019-03-01T04:29:47.741Z,74.86
2019-03-01T04:32:17.381Z,74.83
2019-03-01T04:34:46.990Z,74.81
2019-03-01T04:37:16.545Z,74.78
2019-03-01T04:39:46.114Z,74.84
2019-03-01T04:42:15.674Z,74.89
2019-03-01T04:44:45.428Z,74.92
2019-03-01T04:47:15.068Z,74.94
2019-03-01T04:49:46.283Z,75.03
2019-03-01T04:52:35.660Z,75.09
2019-03-01T04:55:10.982Z,75.13
2019-03-01T04:57:40.563Z,75.10
2019-03-01T05:00:17.041Z,75.23
2019-03-01T05:02:46.621Z,75.47
2019-03-01T05:05:16.915Z,75.59
2019-03-01T05:07:46.597Z,75.65
2019-03-01T05:10:16.867Z,75.67
2019-03-01T05:12:46.547Z,75.75
2019-03-01T05:15:19.301Z,75.85
2019-03-01T05:17:48.864Z,75.88
2019-03-01T05:20:18.416Z,75.91
2019-03-01T05:22:48.150Z,76.00
2019-03-01T05:25:17.713Z,76.18
2019-03-01T05:27:47.374Z,76.35
2019-03-01T05:30:18.755Z,76.57
2019-03-01T05:32:48.523Z,76.75
2019-03-01T05:35:18.179Z,76.92
2019-03-01T05:37:47.719Z,77.14
2019-03-01T05:40:18.184Z,77.34
2019-03-01T05:42:47.743Z,77.61
2019-03-01T05:45:27.123Z,77.87
2019-03-01T05:47:56.994Z,78.12
2019-03-01T05:50:26.554Z,78.34
2019-03-01T05:52:56.140Z,78.59
2019-03-01T05:55:25.859Z,78.86
2019-03-01T05:58:31.412Z,79.11
2019-03-01T06:01:26.270Z,79.31
2019-03-01T06:04:03.353Z,79.24
2019-03-01T06:06:48.960Z,79.15
2019-03-01T06:09:35.333Z,79.15
2019-03-01T06:12:42.966Z,79.14
2019-03-01T06:15:59.675Z,79.32
2019-03-01T06:19:13.862Z,79.25
2019-03-01T06:22:24.594Z,79.24
2019-03-01T06:25:18.356Z,79.13
2019-03-01T06:27:58.185Z,79.10
2019-03-01T06:30:35.240Z,79.18
2019-03-01T06:33:28.934Z,79.31
2019-03-01T06:36:08.987Z,79.40
2019-03-01T06:39:30.677Z,79.37
2019-03-01T06:42:30.383Z,79.44
2019-03-01T06:45:25.738Z,79.31
2019-03-01T06:47:55.301Z,79.36
2019-03-01T06:50:26.515Z,79.42
2019-03-01T06:52:56.144Z,79.60
2019-03-01T06:55:42.422Z,79.64
2019-03-01T06:58:16.966Z,79.65
2019-03-01T07:00:50.409Z,79.60
2019-03-01T07:03:19.821Z,79.63
2019-03-01T07:05:49.387Z,79.63
2019-03-01T07:08:19.025Z,79.73
2019-03-01T07:10:48.581Z,79.86
2019-03-01T07:13:18.153Z,79.98
2019-03-01T07:15:47.714Z,80.11
2019-03-01T07:18:17.368Z,80.19
2019-03-01T07:20:46.977Z,80.27
2019-03-01T07:23:16.541Z,80.31
2019-03-01T07:25:46.112Z,80.36
2019-03-01T07:28:15.656Z,80.36
2019-03-01T07:30:45.278Z,80.35
2019-03-01T07:33:14.838Z,80.33
2019-03-01T07:35:46.280Z,80.38
2019-03-01T07:38:15.741Z,80.39
2019-03-01T07:40:45.400Z,80.45
2019-03-01T07:43:14.995Z,80.54
2019-03-01T07:45:44.544Z,80.60
2019-03-01T07:48:14.184Z,80.65
2019-03-01T07:50:43.738Z,80.75
2019-03-01T07:53:13.643Z,80.77
2019-03-01T07:55:44.110Z,80.80
2019-03-01T07:58:13.818Z,80.80
2019-03-01T08:00:43.470Z,80.83
2019-03-01T08:03:15.122Z,80.85
2019-03-01T08:05:44.327Z,80.84
2019-03-01T08:08:13.884Z,80.79
2019-03-01T08:10:43.491Z,80.72
2019-03-01T08:13:14.768Z,80.73
2019-03-01T08:15:44.799Z,80.75
2019-03-01T08:18:15.497Z,80.79
2019-03-01T08:20:45.017Z,80.89
2019-03-01T08:23:14.574Z,80.92
2019-03-01T08:25:44.095Z,80.97
2019-03-01T08:28:13.641Z,80.98
2019-03-01T08:30:46.902Z,80.95
2019-03-01T08:33:16.503Z,81.01
2019-03-01T08:35:46.023Z,81.03
2019-03-01T08:38:15.547Z,80.97
2019-03-01T08:40:46.677Z,80.86
2019-03-01T08:43:16.621Z,80.77
2019-03-01T08:45:46.287Z,80.72
2019-03-01T08:48:15.807Z,80.66
2019-03-01T08:50:45.845Z,80.59
2019-03-01T08:53:16.159Z,80.48
2019-03-01T08:55:46.333Z,80.45
2019-03-01T08:58:15.873Z,80.59
2019-03-01T09:00:59.032Z,80.57
2019-03-01T09:03:31.643Z,80.49
2019-03-01T09:06:01.165Z,80.50
2019-03-01T09:08:30.718Z,80.52
2019-03-01T09:11:00.252Z,80.69
2019-03-01T09:13:29.852Z,80.72
2019-03-01T09:15:59.409Z,80.86
2019-03-01T09:18:28.999Z,80.95
2019-03-01T09:21:05.637Z,81.00
2019-03-01T09:23:29.982Z,81.03
2019-03-01T09:25:59.504Z,81.09
2019-03-01T09:28:29.213Z,81.11
2019-03-01T09:30:58.759Z,81.12
2019-03-01T09:33:28.314Z,81.09
2019-03-01T09:36:05.236Z,80.97
2019-03-01T09:38:34.967Z,80.90
2019-03-01T09:41:05.421Z,80.77
2019-03-01T09:43:34.975Z,80.71
2019-03-01T09:46:04.577Z,80.71
2019-03-01T09:48:34.108Z,80.68
2019-03-01T09:51:03.728Z,80.66
2019-03-01T09:53:34.163Z,80.67
2019-03-01T09:56:04.711Z,80.67
2019-03-01T09:58:34.246Z,80.62
2019-03-01T10:01:11.372Z,80.66
2019-03-01T10:03:40.906Z,80.64
2019-03-01T10:06:10.446Z,80.51
2019-03-01T10:08:39.981Z,80.48
2019-03-01T10:11:09.598Z,80.40
2019-03-01T10:13:39.134Z,80.33
2019-03-01T10:16:08.724Z,80.43
2019-03-01T10:18:38.725Z,80.46
2019-03-01T10:21:08.248Z,80.39
2019-03-01T10:23:37.835Z,80.33
2019-03-01T10:26:07.401Z,80.24
2019-03-01T10:28:36.924Z,80.11
2019-03-01T10:31:06.555Z,80.16
2019-03-01T10:33:36.094Z,80.27
2019-03-01T10:36:05.854Z,80.28
2019-03-01T10:38:35.403Z,80.13
2019-03-01T10:41:05.103Z,79.95
2019-03-01T10:43:34.655Z,79.81
2019-03-01T10:46:04.192Z,79.73
2019-03-01T10:48:33.855Z,79.56
2019-03-01T10:51:03.343Z,79.42
2019-03-01T10:53:32.863Z,79.36
2019-03-01T10:56:02.449Z,79.33
2019-03-01T10:58:32.000Z,79.27
2019-03-01T11:01:01.569Z,79.23
2019-03-01T11:03:31.273Z,79.33
2019-03-01T11:06:00.759Z,79.36
2019-03-01T11:08:30.306Z,79.37
2019-03-01T11:10:59.871Z,79.38
2019-03-01T11:13:29.369Z,79.37
2019-03-01T11:15:58.923Z,79.51
2019-03-01T11:18:28.479Z,79.70
2019-03-01T11:20:58.077Z,79.92
2019-03-01T11:23:27.666Z,80.10
2019-03-01T11:25:57.198Z,80.24
2019-03-01T11:28:26.746Z,80.30
2019-03-01T11:30:56.336Z,80.27
2019-03-01T11:33:25.891Z,80.23
2019-03-01T11:35:55.706Z,80.34
2019-03-01T11:38:25.258Z,80.49
2019-03-01T11:40:55.923Z,80.55
2019-03-01T11:43:25.485Z,80.51
2019-03-01T11:45:55.007Z,80.36
2019-03-01T11:48:24.708Z,80.07
2019-03-01T11:50:54.301Z,79.84
2019-03-01T11:53:23.847Z,79.64
2019-03-01T11:55:53.544Z,79.37
2019-03-01T11:58:23.068Z,79.06
2019-03-01T12:00:52.676Z,78.68
2019-03-01T12:03:22.362Z,78.39
2019-03-01T12:05:51.888Z,78.31
2019-03-01T12:08:21.417Z,78.26
2019-03-01T12:10:50.961Z,78.43
2019-03-01T12:13:20.492Z,78.68
2019-03-01T12:15:50.035Z,78.62
2019-03-01T12:18:19.698Z,78.50
2019-03-01T12:20:49.219Z,78.35
2019-03-01T12:23:18.790Z,78.25
2019-03-01T12:25:48.351Z,78.12
2019-03-01T12:28:17.907Z,77.97
2019-03-01T12:30:47.589Z,78.01
2019-03-01T12:33:17.238Z,78.08
2019-03-01T12:35:46.774Z,78.08
2019-03-01T12:38:16.304Z,78.05
2019-03-01T12:40:45.860Z,77.86
2019-03-01T12:43:15.388Z,77.63
2019-03-01T12:45:44.920Z,77.37
2019-03-01T12:48:14.883Z,77.11
2019-03-01T12:50:44.413Z,76.77
2019-03-01T12:53:13.967Z,76.44
2019-03-01T12:55:43.709Z,76.40
2019-03-01T12:58:19.343Z,76.38
2019-03-01T13:00:44.567Z,76.12
2019-03-01T13:03:14.291Z,75.95
2019-03-01T13:05:43.808Z,75.84
2019-03-01T13:08:15.756Z,75.80
2019-03-01T13:10:46.133Z,75.83
2019-03-01T13:13:15.771Z,75.82
2019-03-01T13:15:48.322Z,75.75
2019-03-01T13:18:16.890Z,75.90
2019-03-01T13:20:46.477Z,76.04
2019-03-01T13:23:16.012Z,76.17
2019-03-01T13:25:45.573Z,76.28
2019-03-01T13:28:15.094Z,76.56
2019-03-01T13:30:44.666Z,76.80
2019-03-01T13:33:14.344Z,76.95
2019-03-01T13:35:43.883Z,77.18
2019-03-01T13:38:13.402Z,77.40
2019-03-01T13:40:43.373Z,77.78
2019-03-01T13:43:12.884Z,78.05
2019-03-01T13:45:42.420Z,78.16
2019-03-01T13:48:12.126Z,78.17
2019-03-01T13:50:42.424Z,78.13
2019-03-01T13:53:12.017Z,78.00
2019-03-01T13:55:41.789Z,77.94
2019-03-01T13:58:11.298Z,78.01
2019-03-01T14:00:40.822Z,77.86
2019-03-01T14:03:10.794Z,77.54
2019-03-01T14:05:40.316Z,77.10
2019-03-01T14:08:09.831Z,76.70
2019-03-01T14:10:41.857Z,76.21
2019-03-01T14:13:11.243Z,75.56
2019-03-01T14:15:42.205Z,75.16
2019-03-01T14:18:11.742Z,74.64
2019-03-01T14:20:41.271Z,74.06
2019-03-01T14:23:10.792Z,73.45
2019-03-01T14:25:41.712Z,72.67
2019-03-01T14:28:14.300Z,71.93
2019-03-01T14:30:43.905Z,71.21
2019-03-01T14:33:13.698Z,70.79
2019-03-01T14:35:43.259Z,70.25
2019-03-01T14:38:12.846Z,69.79
2019-03-01T14:40:42.400Z,69.44
2019-03-01T14:43:12.390Z,69.31
2019-03-01T14:45:44.774Z,69.03
2019-03-01T14:48:13.460Z,68.83
2019-03-01T14:50:43.038Z,68.72
2019-03-01T14:53:12.565Z,68.66
2019-03-01T14:55:55.664Z,68.49
2019-03-01T14:58:37.911Z,68.33
2019-03-01T15:01:26.800Z,68.01
2019-03-01T15:03:55.535Z,67.80
2019-03-01T15:06:25.127Z,67.50
2019-03-01T15:08:54.750Z,67.38
2019-03-01T15:11:24.909Z,67.31
2019-03-01T15:13:54.495Z,67.12
2019-03-01T15:16:24.318Z,66.80
2019-03-01T15:18:53.837Z,66.40
2019-03-01T15:21:23.363Z,66.32
2019-03-01T15:23:56.365Z,66.00
2019-03-01T15:26:26.599Z,65.74
2019-03-01T15:28:56.043Z,65.46
2019-03-01T15:31:26.054Z,65.31
2019-03-01T15:33:55.570Z,65.15
2019-03-01T15:36:25.089Z,65.01
2019-03-01T15:38:54.642Z,64.82
2019-03-01T15:41:24.168Z,64.74
2019-03-01T15:43:53.675Z,64.83
2019-03-01T15:46:23.227Z,64.67
2019-03-01T15:48:52.741Z,64.55
2019-03-01T15:51:22.268Z,64.51
2019-03-01T15:53:52.220Z,64.46
2019-03-01T15:56:22.142Z,64.50
2019-03-01T15:58:52.014Z,64.41
2019-03-01T16:01:21.754Z,64.37
2019-03-01T16:03:54.042Z,64.35
2019-03-01T16:06:23.081Z,64.35
2019-03-01T16:08:52.614Z,64.33
2019-03-01T16:11:22.339Z,64.29
2019-03-01T16:13:51.847Z,64.31
2019-03-01T16:16:21.375Z,64.42
2019-03-01T16:18:50.921Z,64.51
2019-03-01T16:21:20.434Z,64.50
2019-03-01T16:23:50.386Z,64.53
2019-03-01T16:26:29.409Z,64.58
2019-03-01T16:28:51.139Z,64.61
2019-03-01T16:31:33.499Z,64.59
2019-03-01T16:34:05.344Z,64.58
2019-03-01T16:36:36.112Z,64.60
2019-03-01T16:39:10.378Z,64.55
2019-03-01T16:41:42.817Z,64.60
2019-03-01T16:44:11.219Z,64.75
2019-03-01T16:46:40.746Z,64.77
2019-03-01T16:49:10.284Z,64.78
2019-03-01T16:51:39.808Z,64.70
2019-03-01T16:54:09.429Z,64.70
2019-03-01T16:56:39.418Z,64.71
2019-03-01T16:59:09.354Z,64.54
2019-03-01T17:01:40.885Z,64.43
2019-03-01T17:04:10.471Z,64.43
2019-03-01T17:06:40.009Z,64.49
2019-03-01T17:09:11.729Z,64.49
2019-03-01T17:11:41.384Z,64.36
2019-03-01T17:14:11.881Z,64.16
2019-03-01T17:16:41.539Z,63.96
2019-03-01T17:19:11.056Z,63.94
2019-03-01T17:21:40.571Z,63.83
2019-03-01T17:24:12.268Z,63.83
2019-03-01T17:26:41.386Z,63.80
2019-03-01T17:29:10.953Z,63.89
2019-03-01T17:31:40.476Z,63.91
2019-03-01T17:34:10.227Z,63.97
2019-03-01T17:36:39.757Z,63.99
2019-03-01T17:39:09.828Z,64.09
2019-03-01T17:41:44.639Z,64.28
2019-03-01T17:44:10.616Z,64.37
2019-03-01T17:46:40.154Z,64.55
2019-03-01T17:49:09.674Z,64.66
2019-03-01T17:51:39.219Z,64.78
2019-03-01T17:54:08.734Z,64.84
2019-03-01T17:56:38.251Z,64.91
2019-03-01T17:59:08.396Z,64.94
2019-03-01T18:01:40.297Z,65.01
2019-03-01T18:04:09.900Z,65.05
2019-03-01T18:06:39.429Z,65.07
2019-03-01T18:09:09.273Z,65.07
2019-03-01T18:11:40.713Z,65.04
2019-03-01T18:14:10.815Z,65.04
2019-03-01T18:16:40.376Z,65.10
2019-03-01T18:19:09.962Z,65.16
2019-03-01T18:21:39.533Z,65.23
2019-03-01T18:24:11.002Z,65.32
2019-03-01T18:26:40.986Z,65.39
2019-03-01T18:29:10.631Z,65.53
2019-03-01T18:31:40.151Z,65.64
2019-03-01T18:34:09.690Z,65.79
2019-03-01T18:36:39.224Z,65.91
2019-03-01T18:39:13.207Z,65.90
2019-03-01T18:41:42.721Z,65.94
2019-03-01T18:44:12.703Z,66.08
2019-03-01T18:46:42.228Z,66.23
2019-03-01T18:49:11.751Z,66.33
2019-03-01T18:51:43.200Z,66.36
2019-03-01T18:54:12.610Z,66.35
2019-03-01T18:56:42.157Z,66.42
2019-03-01T18:59:11.675Z,66.48
2019-03-01T19:01:42.973Z,66.51
2019-03-01T19:04:12.882Z,66.66
2019-03-01T19:06:43.752Z,66.66
2019-03-01T19:09:16.494Z,66.71
2019-03-01T19:11:44.778Z,66.80
2019-03-01T19:14:14.302Z,67.22
2019-03-01T19:16:43.843Z,67.25
2019-03-01T19:19:13.355Z,66.99
2019-03-01T19:21:42.902Z,66.86
2019-03-01T19:24:12.422Z,66.90
2019-03-01T19:26:41.961Z,67.08
2019-03-01T19:29:11.651Z,67.19
2019-03-01T19:31:41.544Z,67.25
2019-03-01T19:34:13.067Z,67.31
2019-03-01T19:36:42.316Z,67.40
2019-03-01T19:39:20.052Z,67.49
2019-03-01T19:41:49.560Z,67.57
2019-03-01T19:44:19.094Z,67.70
2019-03-01T19:46:51.398Z,67.79
2019-03-01T19:49:19.926Z,67.86
2019-03-01T19:51:49.432Z,67.93
2019-03-01T19:54:18.930Z,67.89
2019-03-01T19:56:48.548Z,67.74
2019-03-01T19:59:18.095Z,67.65
2019-03-01T20:01:49.387Z,67.67
2019-03-01T20:04:21.204Z,67.62
2019-03-01T20:06:50.630Z,67.51
2019-03-01T20:09:20.686Z,67.51
2019-03-01T20:11:51.934Z,67.54
2019-03-01T20:14:21.557Z,67.61
2019-03-01T20:16:51.077Z,67.62
2019-03-01T20:19:23.407Z,67.57
2019-03-01T20:21:53.162Z,67.55
2019-03-01T20:24:22.705Z,67.45
2019-03-01T20:26:52.259Z,67.40
2019-03-01T20:29:21.816Z,67.49
2019-03-01T20:31:51.339Z,67.53
2019-03-01T20:34:20.865Z,67.45
2019-03-01T20:36:52.961Z,67.37
2019-03-01T20:39:21.827Z,67.38
2019-03-01T20:41:51.352Z,67.34
2019-03-01T20:44:20.887Z,67.38
2019-03-01T20:46:50.409Z,67.33
2019-03-01T20:49:19.926Z,67.36
2019-03-01T20:51:49.525Z,67.35
2019-03-01T20:54:21.868Z,67.40
2019-03-01T20:56:51.658Z,67.38
2019-03-01T20:59:21.590Z,67.37
2019-03-01T21:01:51.119Z,67.29
2019-03-01T21:04:20.665Z,67.21
2019-03-01T21:06:50.206Z,67.10
2019-03-01T21:09:19.993Z,67.03
2019-03-01T21:11:49.506Z,67.02
2019-03-01T21:14:19.139Z,66.98
2019-03-01T21:16:51.502Z,66.90
2019-03-01T21:19:21.076Z,66.78
2019-03-01T21:21:50.676Z,66.76
2019-03-01T21:24:23.000Z,66.78
2019-03-01T21:26:52.078Z,66.70
2019-03-01T21:29:21.670Z,66.66
2019-03-01T21:31:51.286Z,66.71
2019-03-01T21:34:21.067Z,66.70
2019-03-01T21:36:50.722Z,66.71
2019-03-01T21:39:20.624Z,66.77
2019-03-01T21:41:51.503Z,66.76
2019-03-01T21:44:21.057Z,66.75
2019-03-01T21:46:50.614Z,66.68
2019-03-01T21:49:20.168Z,66.56
2019-03-01T21:51:51.675Z,66.52
2019-03-01T21:54:20.971Z,66.55
2019-03-01T21:56:55.702Z,66.52
2019-03-01T21:59:22.087Z,66.53
2019-03-01T22:01:52.785Z,66.54
2019-03-01T22:04:22.519Z,66.58
2019-03-01T22:06:52.047Z,66.63
2019-03-01T22:09:24.274Z,66.67
2019-03-01T22:11:52.826Z,66.70
2019-03-01T22:14:22.380Z,66.67
2019-03-01T22:16:51.911Z,66.65
2019-03-01T22:19:21.422Z,66.69
2019-03-01T22:21:50.966Z,66.76
2019-03-01T22:24:23.721Z,66.83
2019-03-01T22:26:51.743Z,66.85
2019-03-01T22:29:21.308Z,66.90
2019-03-01T22:31:50.841Z,66.92
2019-03-01T22:34:20.366Z,66.94
2019-03-01T22:36:52.901Z,66.91
2019-03-01T22:39:21.243Z,66.94
2019-03-01T22:41:50.736Z,66.91
2019-03-01T22:44:20.309Z,66.81
2019-03-01T22:46:49.839Z,66.80
2019-03-01T22:49:19.348Z,66.78
2019-03-01T22:51:49.605Z,66.81
2019-03-01T22:54:20.160Z,66.77
2019-03-01T22:56:49.703Z,66.80
2019-03-01T22:59:19.348Z,66.81
2019-03-01T23:01:48.860Z,66.77
2019-03-01T23:04:18.383Z,66.74
2019-03-01T23:06:51.582Z,66.69
2019-03-01T23:09:19.839Z,66.69
2019-03-01T23:11:49.357Z,66.71
2019-03-01T23:14:18.896Z,66.71
2019-03-01T23:16:50.619Z,66.77
2019-03-01T23:19:19.675Z,66.82
2019-03-01T23:21:49.397Z,66.83
2019-03-01T23:24:18.928Z,66.92
2019-03-01T23:26:48.453Z,67.03
2019-03-01T23:29:18.897Z,67.11
2019-03-01T23:31:49.342Z,67.27
2019-03-01T23:34:18.871Z,67.38
2019-03-01T23:36:48.430Z,67.47
2019-03-01T23:39:17.937Z,67.62
2019-03-01T23:41:47.469Z,67.79
2019-03-01T23:44:16.997Z,67.94
2019-03-01T23:46:46.514Z,68.07
2019-03-01T23:49:16.040Z,68.13
2019-03-01T23:51:46.263Z,68.20
2019-03-01T23:54:15.812Z,68.24
2019-03-01T23:56:45.335Z,68.22
2019-03-01T23:59:15.252Z,68.35
